createdAt,value
2019-02-09T00:02:26.872Z,-1.7
2019-02-09T00:07:26.872Z,-1.7
2019-02-09T00:12:26.873Z,-1.7
2019-02-09T00:17:27.051Z,-1.7
2019-02-09T00:22:26.889Z,-1.7
2019-02-09T00:27:26.894Z,-1.7
2019-02-09T00:32:26.893Z,-1.7
2019-02-09T00:37:26.881Z,-1.7
2019-02-09T00:42:26.881Z,-1.7
2019-02-09T00:47:27.103Z,-1.7
2019-02-09T00:52:26.905Z,-1.6
2019-02-09T00:57:26.892Z,-1.6
2019-02-09T01:02:26.906Z,-1.6
2019-02-09T01:07:27.086Z,-1.6
2019-02-09T01:12:26.854Z,-1.6
2019-02-09T01:17:27.043Z,-1.5
2019-02-09T01:22:27.092Z,-1.5
2019-02-09T01:27:26.904Z,-1.5
2019-02-09T01:32:26.918Z,-1.5
2019-02-09T01:37:26.913Z,-1.4
2019-02-09T01:42:26.914Z,-1.4
2019-02-09T01:47:26.928Z,-1.4
2019-02-09T01:52:26.936Z,-1.4
2019-02-09T01:57:26.937Z,-1.4
2019-02-09T02:02:28.044Z,-1.4
2019-02-09T02:07:26.930Z,-1.4
2019-02-09T02:12:26.959Z,-1.4
2019-02-09T02:17:26.938Z,-1.4
2019-02-09T02:22:26.948Z,-1.5
2019-02-09T02:27:27.131Z,-1.5
2019-02-09T02:32:26.964Z,-1.5
2019-02-09T02:37:27.104Z,-1.5
2019-02-09T02:42:26.958Z,-1.5
2019-02-09T02:47:26.942Z,-1.6
2019-02-09T02:52:26.955Z,-1.6
2019-02-09T02:57:27.124Z,-1.6
2019-02-09T03:02:26.962Z,-1.7
2019-02-09T03:07:27.091Z,-1.7
2019-02-09T03:12:26.972Z,-1.7
2019-02-09T03:17:26.980Z,-1.7
2019-02-09T03:22:26.972Z,-1.7
2019-02-09T03:27:27.124Z,-1.7
2019-02-09T03:32:27.019Z,-1.7
2019-02-09T03:37:26.976Z,-1.7
2019-02-09T03:42:26.998Z,-1.7
2019-02-09T03:47:26.969Z,-1.7
2019-02-09T03:52:27.024Z,-1.7
2019-02-09T03:57:27.163Z,-1.8
2019-02-09T04:02:26.999Z,-1.7
2019-02-09T04:07:27.013Z,-1.7
2019-02-09T04:12:27.003Z,-1.7
2019-02-09T04:17:27.011Z,-1.7
2019-02-09T04:22:26.997Z,-1.7
2019-02-09T04:27:27.009Z,-1.7
2019-02-09T04:32:27.019Z,-1.7
2019-02-09T04:37:27.207Z,-1.7
2019-02-09T04:42:27.016Z,-1.7
2019-02-09T04:47:27.038Z,-1.7
2019-02-09T04:52:27.002Z,-1.7
2019-02-09T04:57:27.042Z,-1.7
2019-02-09T05:02:27.159Z,-1.7
2019-02-09T05:07:27.216Z,-1.7
2019-02-09T05:12:27.025Z,-1.7
2019-02-09T05:17:27.039Z,-1.8
2019-02-09T05:22:27.042Z,-1.8
2019-02-09T05:27:27.044Z,-1.8
2019-02-09T05:32:27.037Z,-1.8
2019-02-09T05:37:27.196Z,-1.9
2019-02-09T05:42:27.013Z,-1.9
2019-02-09T05:47:27.055Z,-2
2019-02-09T05:52:27.061Z,-2
2019-02-09T05:57:27.182Z,-2
2019-02-09T06:02:27.240Z,-2
2019-02-09T06:07:27.080Z,-2.1
2019-02-09T06:12:27.062Z,-2.1
2019-02-09T06:17:27.079Z,-2.1
2019-02-09T06:22:27.093Z,-2.1
2019-02-09T06:27:27.195Z,-2.1
2019-02-09T06:32:27.093Z,-2.2
2019-02-09T06:37:27.100Z,-2.2
2019-02-09T06:42:27.095Z,-2.2
2019-02-09T06:47:27.120Z,-2.2
2019-02-09T06:52:27.032Z,-2.2
2019-02-09T06:57:27.103Z,-2.1
2019-02-09T07:02:27.091Z,-2
2019-02-09T07:07:27.106Z,-1.8
2019-02-09T07:12:27.084Z,-1.7
2019-02-09T07:17:27.104Z,-1.6
2019-02-09T07:22:27.096Z,-1.5
2019-02-09T07:27:27.116Z,-1.4
2019-02-09T07:32:27.122Z,-1.3
2019-02-09T07:37:27.108Z,-1.1
2019-02-09T07:42:27.252Z,-1
2019-02-09T07:47:27.124Z,-0.6
2019-02-09T07:52:27.128Z,-0.4
2019-02-09T07:57:27.124Z,-0.2
2019-02-09T08:02:27.084Z,0
2019-02-09T08:07:27.113Z,0.2
2019-02-09T08:12:27.119Z,0.4
2019-02-09T08:17:27.160Z,0.5
2019-02-09T08:22:27.123Z,0.7
2019-02-09T08:27:27.139Z,0.9
2019-02-09T08:32:27.082Z,1.1
2019-02-09T08:37:27.148Z,1.4
2019-02-09T08:42:27.167Z,1.6
2019-02-09T08:47:27.158Z,1.8
2019-02-09T08:52:27.140Z,1.9
2019-02-09T08:57:27.281Z,2.1
2019-02-09T09:02:27.214Z,2.1
2019-02-09T09:07:27.169Z,2.2
2019-02-09T09:12:27.188Z,2.2
2019-02-09T09:17:27.161Z,2.3
2019-02-09T09:22:27.189Z,2.3
2019-02-09T09:27:27.255Z,2.5
2019-02-09T09:32:28.606Z,2.6
2019-02-09T09:37:27.171Z,2.7
2019-02-09T09:42:27.169Z,3
2019-02-09T09:47:27.205Z,3.3
2019-02-09T09:52:27.139Z,3.5
2019-02-09T09:57:27.201Z,3.7
2019-02-09T10:02:27.201Z,3.9
2019-02-09T10:07:27.390Z,4
2019-02-09T10:12:27.215Z,4.1
2019-02-09T10:17:27.390Z,4.1
2019-02-09T10:22:27.185Z,4.2
2019-02-09T10:27:27.529Z,4.4
2019-02-09T10:32:27.834Z,4.6
2019-02-09T10:37:27.183Z,4.9
2019-02-09T10:42:27.693Z,5
2019-02-09T10:47:27.405Z,5.3
2019-02-09T10:52:27.215Z,5.7
2019-02-09T10:57:27.203Z,6.1
2019-02-09T11:02:27.214Z,6.3
2019-02-09T11:07:27.212Z,6.7
2019-02-09T11:12:27.362Z,6.8
2019-02-09T11:17:27.411Z,7
2019-02-09T11:22:27.234Z,7.1
2019-02-09T11:27:27.223Z,7.2
2019-02-09T11:32:27.263Z,7.4
2019-02-09T11:37:27.231Z,7.8
2019-02-09T11:42:27.246Z,8.1
2019-02-09T11:47:27.268Z,8.3
2019-02-09T11:52:27.243Z,8.4
2019-02-09T11:57:27.241Z,8.5
2019-02-09T12:02:27.238Z,8.5
2019-02-09T12:07:27.252Z,8.5
2019-02-09T12:12:27.251Z,8.6
2019-02-09T12:17:27.260Z,8.6
2019-02-09T12:22:27.250Z,8.7
2019-02-09T12:27:27.255Z,8.8
2019-02-09T12:32:27.264Z,9
2019-02-09T12:37:27.273Z,9.2
2019-02-09T12:42:27.276Z,9.2
2019-02-09T12:47:27.280Z,9.3
2019-02-09T12:52:27.264Z,9.3
2019-02-09T12:57:27.279Z,9.4
2019-02-09T13:02:27.296Z,9.5
2019-02-09T13:07:27.284Z,9.5
2019-02-09T13:12:27.229Z,9.5
2019-02-09T13:17:27.304Z,9.4
2019-02-09T13:22:27.285Z,9.4
2019-02-09T13:27:27.309Z,9.4
2019-02-09T13:32:27.302Z,9.3
2019-02-09T13:37:27.325Z,9.3
2019-02-09T13:42:27.490Z,9.3
2019-02-09T13:47:27.302Z,9.2
2019-02-09T13:52:27.320Z,9.1
2019-02-09T13:57:27.260Z,9.1
2019-02-09T14:02:27.445Z,9.1
2019-02-09T14:07:27.460Z,9.1
2019-02-09T14:12:27.477Z,9
2019-02-09T14:17:27.525Z,9
2019-02-09T14:22:27.330Z,9.1
2019-02-09T14:27:27.338Z,9.2
2019-02-09T14:32:27.320Z,9.2
2019-02-09T14:37:27.383Z,9.2
2019-02-09T14:42:27.378Z,9.2
2019-02-09T14:47:27.324Z,9.3
2019-02-09T14:52:27.361Z,9.4
2019-02-09T14:57:27.358Z,9.4
2019-02-09T15:02:27.337Z,9.3
2019-02-09T15:07:27.312Z,9.3
2019-02-09T15:12:27.372Z,9.3
2019-02-09T15:17:27.358Z,9.2
2019-02-09T15:22:27.373Z,9.1
2019-02-09T15:27:27.353Z,9
2019-02-09T15:32:27.370Z,8.9
2019-02-09T15:37:27.376Z,8.7
2019-02-09T15:42:27.393Z,8.6
2019-02-09T15:47:27.536Z,8.5
2019-02-09T15:52:27.379Z,8.4
2019-02-09T15:57:30.133Z,8.3
2019-02-09T16:02:27.417Z,8.3
2019-02-09T16:07:27.382Z,8.2
2019-02-09T16:12:27.401Z,8.2
2019-02-09T16:17:27.416Z,8.2
2019-02-09T16:22:27.390Z,8.1
2019-02-09T16:27:27.400Z,8
2019-02-09T16:32:27.397Z,7.9
2019-02-09T16:37:27.403Z,7.8
2019-02-09T16:42:27.387Z,7.7
2019-02-09T16:47:27.425Z,7.6
2019-02-09T16:52:27.403Z,7.5
2019-02-09T16:57:27.556Z,7.5
2019-02-09T17:02:27.391Z,7.5
2019-02-09T17:07:27.598Z,7.4
2019-02-09T17:12:27.410Z,7.3
2019-02-09T17:17:27.703Z,7.2
2019-02-09T17:22:27.424Z,7.1
2019-02-09T17:27:27.405Z,7
2019-02-09T17:32:27.399Z,6.8
2019-02-09T17:37:27.603Z,6.7
2019-02-09T17:42:27.434Z,6.6
2019-02-09T17:47:27.923Z,6.5
2019-02-09T17:52:27.796Z,6.4
2019-02-09T17:57:27.468Z,6.2
2019-02-09T18:02:27.454Z,6.1
2019-02-09T18:07:27.902Z,5.9
2019-02-09T18:12:27.933Z,5.7
2019-02-09T18:17:27.432Z,5.5
2019-02-09T18:22:27.493Z,5.4
2019-02-09T18:27:27.462Z,5.3
2019-02-09T18:32:27.449Z,5.4
2019-02-09T18:37:27.481Z,5.3
2019-02-09T18:42:27.490Z,5.2
2019-02-09T18:47:27.431Z,5.2
2019-02-09T18:52:27.471Z,5
2019-02-09T18:57:27.655Z,5
2019-02-09T19:02:27.466Z,4.8
2019-02-09T19:07:27.473Z,4.7
2019-02-09T19:12:27.780Z,4.7
2019-02-09T19:17:27.481Z,4.6
2019-02-09T19:22:27.441Z,4.5
2019-02-09T19:27:27.493Z,4.4
2019-02-09T19:32:27.542Z,4.4
2019-02-09T19:37:27.688Z,4.3
2019-02-09T19:42:27.522Z,4.2
2019-02-09T19:47:28.593Z,4.1
2019-02-09T19:52:27.515Z,4
2019-02-09T19:57:28.053Z,3.9
2019-02-09T20:02:27.888Z,3.8
2019-02-09T20:07:27.591Z,3.8
2019-02-09T20:12:27.635Z,3.7
2019-02-09T20:17:27.795Z,3.7
2019-02-09T20:22:28.012Z,3.6
2019-02-09T20:27:28.132Z,3.5
2019-02-09T20:32:27.528Z,3.5
2019-02-09T20:37:29.583Z,3.4
2019-02-09T20:42:28.368Z,3.3
2019-02-09T20:47:27.767Z,3.2
2019-02-09T20:52:27.539Z,3.2
2019-02-09T20:57:27.523Z,3.1
2019-02-09T21:02:27.788Z,3.1
2019-02-09T21:07:27.560Z,3.1
2019-02-09T21:12:27.542Z,3.1
2019-02-09T21:17:27.719Z,3.1
2019-02-09T21:22:27.569Z,3.1
2019-02-09T21:27:27.632Z,3.1
2019-02-09T21:32:27.825Z,3.2
2019-02-09T21:37:27.522Z,3.2
2019-02-09T21:42:27.591Z,3.2
2019-02-09T21:47:27.680Z,3.2
2019-02-09T21:52:27.572Z,3.2
2019-02-09T21:57:27.556Z,3.2
2019-02-09T22:02:27.581Z,3.2
2019-02-09T22:07:27.796Z,3.3
2019-02-09T22:12:27.585Z,3.2
2019-02-09T22:17:27.647Z,3.2
2019-02-09T22:22:27.571Z,3.2
2019-02-09T22:27:27.687Z,3.2
2019-02-09T22:32:27.772Z,3.2
2019-02-09T22:37:27.651Z,3.2
2019-02-09T22:42:27.580Z,3.2
2019-02-09T22:47:27.629Z,3.2
2019-02-09T22:52:27.590Z,3.2
2019-02-09T22:57:27.593Z,3.2
2019-02-09T23:02:27.588Z,3.2
2019-02-09T23:07:27.596Z,3.2
2019-02-09T23:12:27.598Z,3.2
2019-02-09T23:17:27.624Z,3.1
2019-02-09T23:22:27.803Z,3.1
2019-02-09T23:27:27.599Z,3
2019-02-09T23:32:27.734Z,3
2019-02-09T23:37:27.818Z,3
2019-02-09T23:42:27.848Z,2.9
2019-02-09T23:47:27.774Z,2.8
2019-02-09T23:52:27.820Z,2.8
2019-02-09T23:57:27.629Z,2.7
